Time;durP1;ratioP1;P1;durP2;ratioP2;P2;SDS_P1;SDS_P2;PMS_P1;PMS_P2;Temp;Humidity;BMP_temperature;BMP_pressure;BME280_temperature;BME280_humidity;BME280_pressure;Samples;Min_cycle;Max_cycle;Signal;HPM_P1;HPM_P2
2022/07/19 00:00:49;;;;;;;;;1.00;1.00;;;;;23.19;48.82;99080.72;4911650;28;102327;-64
2022/07/19 00:03:17;;;;;;;;;0.33;0.33;;;;;23.19;48.83;99080.72;4924710;28;102261;-65
2022/07/19 00:05:44;;;;;;;;;1.00;0.67;;;;;23.19;48.91;99071.66;4911249;28;102254;-64
2022/07/19 00:08:11;;;;;;;;;0.00;0.00;;;;;23.17;48.73;99080.19;4906915;28;104083;-65
2022/07/19 00:10:38;;;;;;;;;1.00;1.00;;;;;23.16;48.86;99084.03;4907843;28;102235;-64
2022/07/19 00:13:06;;;;;;;;;1.00;1.00;;;;;23.16;48.97;99080.44;4921938;28;102562;-65
2022/07/19 00:15:34;;;;;;;;;1.00;1.00;;;;;23.14;48.98;99080.75;4908356;28;102530;-65
2022/07/19 00:18:01;;;;;;;;;1.00;1.00;;;;;23.14;48.90;99073.25;4909243;28;104086;-65
2022/07/19 00:20:29;;;;;;;;;0.00;0.00;;;;;23.14;48.93;99081.53;4915083;28;102416;-64
2022/07/19 00:22:56;;;;;;;;;1.00;1.00;;;;;23.13;48.98;99077.16;4926621;28;102757;-64
2022/07/19 00:25:23;;;;;;;;;0.33;0.33;;;;;23.15;48.92;99079.63;4905901;28;102418;-65
2022/07/19 00:27:51;;;;;;;;;1.00;1.00;;;;;23.14;48.98;99087.06;4913077;28;107875;-65
2022/07/19 00:30:18;;;;;;;;;1.00;1.00;;;;;23.14;48.98;99087.06;4909411;28;102243;-65
2022/07/19 00:32:45;;;;;;;;;0.00;0.00;;;;;23.14;48.92;99081.53;4906231;28;102110;-64
2022/07/19 00:35:13;;;;;;;;;0.00;0.00;;;;;23.12;49.00;99078.25;4907873;28;102694;-65
2022/07/19 00:37:40;;;;;;;;;0.00;0.00;;;;;23.13;48.83;99079.06;4907112;28;104152;-65
2022/07/19 00:40:15;;;;;;;;;1.00;0.67;;;;;23.12;48.91;99083.75;4913767;28;102934;-65
2022/07/19 00:42:42;;;;;;;;;1.00;1.00;;;;;23.08;49.11;99088.16;4909043;28;102569;-65
2022/07/19 00:45:10;;;;;;;;;1.00;1.00;;;;;23.11;48.95;99079.34;4907699;28;102774;-65
2022/07/19 00:47:38;;;;;;;;;0.33;0.33;;;;;23.09;48.94;99089.00;4927653;28;104178;-65
2022/07/19 00:50:05;;;;;;;;;0.33;0.33;;;;;23.03;49.14;99082.63;4917086;28;104478;-64
2022/07/19 00:52:32;;;;;;;;;1.00;1.00;;;;;23.05;49.12;99083.19;4909942;28;102171;-64
2022/07/19 00:54:59;;;;;;;;;1.00;1.00;;;;;23.08;49.06;99087.31;4910713;28;102393;-65
2022/07/19 00:57:26;;;;;;;;;0.00;0.00;;;;;23.08;49.04;99088.16;4896274;28;104037;-64
2022/07/19 00:59:54;;;;;;;;;1.00;1.00;;;;;23.07;49.07;99085.66;4916253;28;103909;-65
2022/07/19 01:02:21;;;;;;;;;0.33;0.33;;;;;23.08;48.97;99087.31;4910186;28;104495;-65
2022/07/19 01:04:48;;;;;;;;;1.00;1.00;;;;;23.07;48.98;99082.91;4901794;28;102289;-64
2022/07/19 01:07:22;;;;;;;;;0.00;0.00;;;;;23.04;49.13;99084.28;4903896;28;108949;-65
2022/07/19 01:09:50;;;;;;;;;0.00;0.00;;;;;23.05;49.07;99076.84;4909330;28;102664;-65
2022/07/19 01:12:20;;;;;;;;;0.00;0.00;;;;;23.04;48.94;99084.28;4917930;28;102110;-65
2022/07/19 01:14:47;;;;;;;;;1.00;1.00;;;;;23.05;49.13;99098.91;4915634;28;103774;-65
2022/07/19 01:17:15;;;;;;;;;1.00;1.00;;;;;23.03;49.06;99090.06;4875389;28;104162;-64
2022/07/19 01:19:43;;;;;;;;;0.33;0.33;;;;;23.02;49.17;99083.72;4924760;28;103008;-65
2022/07/19 01:22:10;;;;;;;;;0.67;0.00;;;;;23.00;49.22;99091.44;4914440;28;104119;-64
2022/07/19 01:24:38;;;;;;;;;1.00;1.00;;;;;22.97;49.28;99089.19;4882200;28;102266;-65
2022/07/19 01:27:05;;;;;;;;;1.00;1.00;;;;;22.98;49.21;99082.59;4891392;28;104347;-64
2022/07/19 01:29:35;;;;;;;;;1.00;1.00;;;;;22.99;49.26;99089.78;4911238;28;102780;-65
2022/07/19 01:32:03;;;;;;;;;0.00;0.00;;;;;22.99;49.21;99087.03;4936248;28;102149;-64
2022/07/19 01:34:31;;;;;;;;;1.00;1.00;;;;;22.99;49.16;99084.25;4882204;28;102190;-65
2022/07/19 01:36:58;;;;;;;;;0.00;0.00;;;;;22.98;49.17;99082.59;4926269;28;102863;-64
2022/07/19 01:39:25;;;;;;;;;1.00;0.00;;;;;22.97;48.91;99072.66;4879370;28;104573;-65
2022/07/19 01:41:53;;;;;;;;;0.00;0.00;;;;;22.98;49.13;99074.31;4908147;28;102265;-65
2022/07/19 01:44:20;;;;;;;;;1.00;0.00;;;;;22.96;49.20;99073.78;4880883;28;102340;-65
2022/07/19 01:46:47;;;;;;;;;0.00;0.00;;;;;23.00;49.09;99076.81;4929638;28;104085;-64
2022/07/19 01:49:14;;;;;;;;;1.00;1.00;;;;;22.94;49.08;99070.44;4909864;28;102247;-65
2022/07/19 01:51:41;;;;;;;;;0.33;0.33;;;;;22.93;49.25;99066.03;4891246;28;102192;-65
2022/07/19 01:54:08;;;;;;;;;1.00;1.00;;;;;22.94;49.20;99064.94;4908249;28;102677;-64
2022/07/19 01:56:36;;;;;;;;;0.67;0.67;;;;;22.92;49.23;99063.56;4893561;28;104024;-65
2022/07/19 01:59:03;;;;;;;;;0.67;0.67;;;;;22.92;49.28;99056.09;4894188;28;102549;-65
2022/07/19 02:01:30;;;;;;;;;0.00;0.00;;;;;22.93;49.34;99062.44;4906517;28;102164;-65
2022/07/19 02:03:57;;;;;;;;;0.00;0.00;;;;;22.91;49.24;99059.13;4937940;28;102246;-64
2022/07/19 02:06:24;;;;;;;;;0.67;0.67;;;;;22.93;49.03;99067.94;4907771;28;104221;-65
2022/07/19 02:08:51;;;;;;;;;1.00;1.00;;;;;22.92;49.22;99075.38;4909554;28;102076;-64
2022/07/19 02:11:37;;;;;;;;;0.67;0.67;;;;;22.94;49.16;99069.63;4908232;28;102322;-65
2022/07/19 02:14:05;;;;;;;;;1.00;1.00;;;;;22.94;48.97;99081.47;4898180;28;102581;-65
2022/07/19 02:16:32;;;;;;;;;0.00;0.00;;;;;22.92;49.00;99077.34;4889398;28;104323;-65
2022/07/19 02:18:59;;;;;;;;;1.00;1.00;;;;;22.93;49.07;99085.31;4912974;28;102569;-65
2022/07/19 02:21:26;;;;;;;;;0.33;0.33;;;;;22.94;49.26;99081.47;4911554;28;102636;-65
2022/07/19 02:23:53;;;;;;;;;1.00;1.00;;;;;22.93;49.13;99084.50;4913336;28;102362;-65
2022/07/19 02:26:21;;;;;;;;;1.00;1.00;;;;;22.92;49.11;99089.19;4891003;28;103802;-65
2022/07/19 02:28:48;;;;;;;;;1.00;1.00;;;;;22.90;49.28;99085.88;4907300;28;102292;-65
2022/07/19 02:31:15;;;;;;;;;1.00;1.00;;;;;22.90;49.25;99085.88;4905387;28;102659;-65
2022/07/19 02:33:42;;;;;;;;;1.00;1.00;;;;;22.88;49.22;99089.97;4927227;28;102384;-65
2022/07/19 02:36:09;;;;;;;;;0.67;0.67;;;;;22.87;49.22;99086.44;4885217;28;103051;-65
2022/07/19 02:38:37;;;;;;;;;0.00;0.00;;;;;22.89;49.21;99092.47;4916235;28;102463;-65
2022/07/19 02:41:04;;;;;;;;;1.00;0.00;;;;;22.90;49.03;99087.81;4908810;28;102562;-65
2022/07/19 02:43:31;;;;;;;;;1.33;1.00;;;;;22.90;49.20;99091.41;4931370;28;102178;-64
2022/07/19 02:45:58;;;;;;;;;0.00;0.00;;;;;22.89;49.25;99089.72;4926418;28;102868;-65
2022/07/19 02:48:25;;;;;;;;;0.00;0.00;;;;;22.91;49.30;99089.47;4929559;28;102472;-65
2022/07/19 02:50:52;;;;;;;;;1.00;1.00;;;;;22.90;49.07;99080.38;4913652;28;103061;-65
2022/07/19 02:53:20;;;;;;;;;0.33;0.33;;;;;22.90;49.14;99079.53;4923858;28;102360;-65
2022/07/19 02:55:47;;;;;;;;;1.67;1.67;;;;;22.90;49.05;99079.53;4909169;28;104274;-65
2022/07/19 02:58:14;;;;;;;;;1.00;0.67;;;;;22.89;49.29;99078.69;4914331;28;102386;-65
2022/07/19 03:00:41;;;;;;;;;1.00;1.00;;;;;22.89;49.17;99083.38;4908400;28;109796;-65
2022/07/19 03:05:55;;;;;;;;;0.67;0.67;;;;;22.86;49.31;99079.25;4902048;28;108776;-65
2022/07/19 03:08:22;;;;;;;;;2.00;1.00;;;;;22.85;49.26;99090.53;4914087;28;102455;-65
2022/07/19 03:10:49;;;;;;;;;1.00;1.00;;;;;22.85;49.38;99094.13;4911812;28;102024;-65
2022/07/19 03:13:17;;;;;;;;;1.00;1.00;;;;;22.86;49.33;99097.72;4914496;28;102187;-65
2022/07/19 03:15:44;;;;;;;;;0.00;0.00;;;;;22.86;49.30;99094.97;4911576;28;105419;-65
2022/07/19 03:18:11;;;;;;;;;0.67;0.67;;;;;22.87;49.22;99099.38;4917826;28;102526;-65
2022/07/19 03:20:38;;;;;;;;;0.00;0.00;;;;;22.86;49.16;99093.03;4912802;28;102391;-65
2022/07/19 03:23:05;;;;;;;;;1.00;1.00;;;;;22.86;49.19;99092.19;4912286;28;102480;-65
2022/07/19 03:25:32;;;;;;;;;0.67;0.33;;;;;22.85;49.16;99094.13;4924402;28;104220;-65
2022/07/19 03:28:00;;;;;;;;;0.33;0.33;;;;;22.84;49.30;99092.47;4912831;28;102434;-65
2022/07/19 03:30:27;;;;;;;;;1.00;1.00;;;;;22.85;49.24;99091.38;4910262;28;101982;-65
2022/07/19 03:32:54;;;;;;;;;0.33;0.33;;;;;22.85;49.13;99099.63;4915989;28;103865;-65
2022/07/19 03:35:21;;;;;;;;;1.00;1.00;;;;;22.82;49.40;99094.66;4884594;28;108217;-65
2022/07/19 03:37:49;;;;;;;;;1.00;1.00;;;;;22.83;49.41;99104.56;4909622;28;102150;-65
2022/07/19 03:40:16;;;;;;;;;1.00;1.00;;;;;22.83;49.26;99107.34;4906535;28;102202;-65
2022/07/19 03:42:43;;;;;;;;;1.00;1.00;;;;;22.82;49.35;99108.47;4930522;28;102326;-65
2022/07/19 03:45:10;;;;;;;;;1.00;1.00;;;;;22.83;49.54;99115.59;4906369;28;104091;-65
2022/07/19 03:47:37;;;;;;;;;0.33;0.33;;;;;22.84;49.38;99116.44;4890663;28;103955;-65
2022/07/19 03:50:05;;;;;;;;;0.00;0.00;;;;;22.86;49.24;99120.59;4891460;28;102409;-65
2022/07/19 03:52:32;;;;;;;;;1.00;1.00;;;;;22.85;49.43;99123.63;4912447;28;102285;-65
2022/07/19 03:54:59;;;;;;;;;2.00;2.00;;;;;22.84;49.34;99120.03;4911443;28;104366;-64
2022/07/19 03:57:26;;;;;;;;;1.00;1.00;;;;;22.85;49.34;99116.19;4911460;28;102253;-65
2022/07/19 03:59:54;;;;;;;;;1.00;1.00;;;;;22.85;49.53;99118.94;4921020;28;102441;-65
2022/07/19 04:02:21;;;;;;;;;0.00;0.00;;;;;22.85;49.47;99115.34;4911631;28;102532;-65
2022/07/19 04:04:48;;;;;;;;;0.00;0.00;;;;;22.83;49.19;99118.38;4932133;28;104333;-65
2022/07/19 04:07:16;;;;;;;;;1.00;1.00;;;;;22.85;49.36;99118.94;4912022;28;102347;-65
2022/07/19 04:09:43;;;;;;;;;0.33;0.33;;;;;22.81;49.29;99123.34;4910781;28;102228;-65
2022/07/19 04:12:10;;;;;;;;;0.00;0.00;;;;;22.81;49.41;99128.00;4913381;28;102261;-65
2022/07/19 04:14:37;;;;;;;;;1.00;1.00;;;;;22.82;49.23;99126.94;4912062;28;104368;-65
2022/07/19 04:17:04;;;;;;;;;0.00;0.00;;;;;22.79;49.06;99120.00;4934594;28;103212;-65
2022/07/19 04:19:32;;;;;;;;;0.33;0.00;;;;;22.79;49.37;99122.75;4905774;28;102430;-64
2022/07/19 04:21:59;;;;;;;;;1.00;1.00;;;;;22.81;49.23;99123.34;4915945;28;103342;-65
2022/07/19 04:24:26;;;;;;;;;1.00;1.00;;;;;22.82;48.98;99121.41;4943389;28;103455;-65
2022/07/19 04:26:53;;;;;;;;;1.33;1.00;;;;;22.82;49.13;99122.25;4915904;28;102048;-65
2022/07/19 04:29:20;;;;;;;;;1.00;1.00;;;;;22.81;48.89;99120.56;4941167;28;102040;-65
2022/07/19 04:31:47;;;;;;;;;1.00;1.00;;;;;22.83;48.88;99123.88;4929502;28;102384;-65
2022/07/19 04:34:15;;;;;;;;;1.00;1.00;;;;;22.80;49.03;99118.06;4906215;28;104090;-65
2022/07/19 04:36:42;;;;;;;;;1.00;1.00;;;;;22.80;48.89;99123.59;4911415;28;103116;-65
2022/07/19 04:39:09;;;;;;;;;1.33;1.00;;;;;22.79;49.31;99111.72;4911373;28;102096;-65
2022/07/19 04:41:37;;;;;;;;;1.00;1.00;;;;;22.80;49.10;99120.84;4898211;28;102579;-65
2022/07/19 04:44:04;;;;;;;;;2.00;1.00;;;;;22.79;49.20;99114.47;4896851;28;103982;-66
2022/07/19 04:46:31;;;;;;;;;1.33;1.00;;;;;22.81;49.35;99114.22;4914051;28;102746;-65
2022/07/19 04:48:58;;;;;;;;;1.00;1.00;;;;;22.83;49.18;99112.84;4928056;28;102155;-65
2022/07/19 04:51:25;;;;;;;;;1.00;1.00;;;;;22.82;49.26;99110.38;4900532;28;102130;-65
2022/07/19 04:53:53;;;;;;;;;1.00;1.00;;;;;22.83;49.34;99112.84;4913083;28;107438;-65
2022/07/19 04:56:20;;;;;;;;;1.00;1.00;;;;;22.83;49.32;99112.84;4913153;28;102649;-65
2022/07/19 04:58:47;;;;;;;;;1.00;1.00;;;;;22.84;49.34;99106.25;4912863;28;102238;-65
2022/07/19 05:01:14;;;;;;;;;1.00;1.00;;;;;22.87;49.49;99108.50;4898528;28;102349;-65
2022/07/19 05:03:41;;;;;;;;;0.00;0.00;;;;;22.89;49.58;99099.94;4910654;28;104077;-64
2022/07/19 05:06:08;;;;;;;;;1.00;1.00;;;;;22.91;49.65;99103.25;4927599;28;102345;-65
2022/07/19 05:08:36;;;;;;;;;2.00;1.00;;;;;22.91;49.83;99109.59;4910473;28;102475;-65
2022/07/19 05:11:03;;;;;;;;;1.00;0.00;;;;;22.92;49.85;99116.75;4915102;28;102206;-65
2022/07/19 05:13:30;;;;;;;;;1.00;1.00;;;;;22.93;49.78;99112.91;4906657;28;104500;-65
2022/07/19 05:15:57;;;;;;;;;1.67;1.67;;;;;22.93;49.52;99112.91;4914443;28;104578;-65
2022/07/19 05:18:24;;;;;;;;;1.00;1.00;;;;;22.94;49.67;99114.56;4920510;28;102186;-65
2022/07/19 05:20:52;;;;;;;;;1.00;1.00;;;;;22.93;49.46;99109.31;4937558;28;102411;-65
2022/07/19 05:23:19;;;;;;;;;2.00;2.00;;;;;22.98;49.64;99121.22;4913981;28;104272;-65
2022/07/19 05:25:46;;;;;;;;;1.00;1.00;;;;;23.00;49.75;99113.50;4912644;28;102225;-65
2022/07/19 05:28:13;;;;;;;;;1.00;1.00;;;;;23.02;49.84;99110.47;4911512;28;102441;-65
2022/07/19 05:30:42;;;;;;;;;1.00;1.00;;;;;23.00;49.65;99119.03;4915461;28;102299;-65
2022/07/19 05:33:09;;;;;;;;;1.00;1.00;;;;;23.06;49.70;99120.69;4916080;28;104184;-65
2022/07/19 05:35:38;;;;;;;;;1.00;1.00;;;;;23.08;49.57;99123.19;4910799;28;102338;-65
2022/07/19 05:38:05;;;;;;;;;1.00;1.00;;;;;23.03;49.64;99118.47;4915469;28;102582;-65
2022/07/19 05:40:35;;;;;;;;;0.67;0.67;;;;;23.08;49.79;99126.78;4897209;28;102430;-65
2022/07/19 05:43:02;;;;;;;;;1.00;1.00;;;;;23.08;49.74;99118.50;4915418;28;103882;-65
2022/07/19 05:45:30;;;;;;;;;0.67;0.67;;;;;23.09;49.86;99117.41;4913490;28;102172;-65
2022/07/19 05:47:57;;;;;;;;;0.67;0.67;;;;;23.09;49.81;99111.91;4892539;28;102534;-65
2022/07/19 05:50:24;;;;;;;;;1.00;1.00;;;;;23.08;49.76;99121.25;4925827;28;102184;-65
2022/07/19 05:52:51;;;;;;;;;0.00;0.00;;;;;23.09;49.79;99116.56;4937448;28;103033;-65
2022/07/19 05:55:18;;;;;;;;;1.00;1.00;;;;;23.08;49.80;99112.16;4921744;28;102397;-65
2022/07/19 05:57:45;;;;;;;;;1.00;1.00;;;;;23.08;50.10;99115.75;4909633;28;102685;-65
2022/07/19 06:00:14;;;;;;;;;0.67;0.67;;;;;23.07;50.15;99118.75;4897493;28;102531;-65
2022/07/19 06:02:41;;;;;;;;;1.00;1.00;;;;;23.09;49.81;99109.13;4891741;28;104046;-65
2022/07/19 06:05:08;;;;;;;;;1.00;1.00;;;;;23.09;49.70;99111.91;4910256;28;102255;-65
2022/07/19 06:07:35;;;;;;;;;1.00;1.00;;;;;23.10;50.04;99109.94;4914888;28;102573;-65
2022/07/19 06:10:03;;;;;;;;;1.00;1.00;;;;;23.09;49.96;99106.38;4915547;28;103185;-65
2022/07/19 06:12:30;;;;;;;;;1.00;1.00;;;;;23.10;50.01;99101.66;4917014;28;104142;-65
2022/07/19 06:14:57;;;;;;;;;2.00;1.00;;;;;23.08;49.98;99107.47;4913388;28;104452;-65
2022/07/19 06:17:24;;;;;;;;;0.00;0.00;;;;;23.07;49.96;99108.56;4913357;28;102392;-65
2022/07/19 06:19:52;;;;;;;;;1.00;1.00;;;;;23.09;50.14;99109.13;4914415;28;102439;-65
2022/07/19 06:22:19;;;;;;;;;0.00;0.00;;;;;23.08;50.40;99090.91;4916552;28;104811;-65
2022/07/19 06:24:46;;;;;;;;;0.33;0.33;;;;;23.10;50.29;99107.19;4901872;28;103052;-65
2022/07/19 06:27:13;;;;;;;;;0.33;0.33;;;;;23.09;50.45;99111.06;4920011;28;102418;-65
2022/07/19 06:29:40;;;;;;;;;0.00;0.00;;;;;23.10;50.35;99107.19;4936531;28;102788;-64
2022/07/19 06:32:07;;;;;;;;;0.67;0.67;;;;;23.11;50.44;99106.09;4919519;28;104250;-65
2022/07/19 06:34:35;;;;;;;;;0.33;0.33;;;;;23.08;50.28;99098.34;4914022;28;102372;-65
2022/07/19 06:37:02;;;;;;;;;1.00;1.00;;;;;23.10;50.14;99096.13;4936096;28;102019;-65
2022/07/19 06:39:29;;;;;;;;;1.33;1.00;;;;;23.10;50.12;99096.97;4913236;28;102207;-65
2022/07/19 06:41:56;;;;;;;;;1.00;1.00;;;;;23.09;49.72;99103.63;4917212;28;104247;-65
2022/07/19 06:44:23;;;;;;;;;0.67;0.67;;;;;23.08;50.20;99104.72;4915371;28;102106;-65
2022/07/19 06:46:50;;;;;;;;;1.00;1.00;;;;;23.07;50.08;99092.00;4912247;28;102228;-65
2022/07/19 06:49:21;;;;;;;;;1.00;1.00;;;;;23.08;50.15;99095.59;4925663;28;102329;-65
2022/07/19 06:51:48;;;;;;;;;1.00;1.00;;;;;23.07;50.14;99100.28;4912092;28;106231;-65
2022/07/19 06:54:15;;;;;;;;;1.00;1.00;;;;;23.06;50.17;99101.38;4894470;28;102794;-65
2022/07/19 06:56:43;;;;;;;;;1.00;1.00;;;;;23.08;50.19;99104.72;4915891;28;102295;-65
2022/07/19 06:59:10;;;;;;;;;0.00;0.00;;;;;23.07;50.37;99102.22;4912999;28;102510;-65
2022/07/19 07:01:37;;;;;;;;;1.00;1.00;;;;;23.07;50.35;99102.22;4894514;28;102924;-65
2022/07/19 07:04:05;;;;;;;;;1.00;1.00;;;;;23.08;50.35;99106.63;4894676;28;102309;-65
2022/07/19 07:06:32;;;;;;;;;1.00;1.00;;;;;23.10;50.03;99107.19;4908377;28;105512;-65
2022/07/19 07:09:01;;;;;;;;;0.33;0.33;;;;;23.09;50.35;99094.50;4937558;28;103624;-65
2022/07/19 07:11:28;;;;;;;;;0.00;0.00;;;;;23.08;50.64;99092.84;4914052;28;104118;-65
2022/07/19 07:13:55;;;;;;;;;0.00;0.00;;;;;23.09;50.31;99095.34;4948576;28;102093;-65
2022/07/19 07:16:23;;;;;;;;;0.00;0.00;;;;;23.09;50.28;99103.63;4910931;28;104931;-65
2022/07/19 07:18:50;;;;;;;;;1.00;1.00;;;;;23.08;50.18;99093.69;4914722;28;102644;-65
2022/07/19 07:21:17;;;;;;;;;2.00;2.00;;;;;23.09;50.00;99102.78;4912695;28;104197;-65
2022/07/19 07:23:44;;;;;;;;;2.00;1.00;;;;;23.08;50.19;99104.72;4919407;28;103379;-65
2022/07/19 07:26:11;;;;;;;;;0.00;0.00;;;;;23.08;50.14;99101.94;4912229;28;101949;-65
2022/07/19 07:28:39;;;;;;;;;0.33;0.33;;;;;23.09;50.22;99095.34;4915803;28;102192;-65
2022/07/19 07:31:06;;;;;;;;;1.00;1.00;;;;;23.08;50.32;99096.44;4912965;28;104805;-64
2022/07/19 07:33:33;;;;;;;;;0.00;0.00;;;;;23.09;50.18;99086.22;4912423;28;102114;-65
2022/07/19 07:36:00;;;;;;;;;1.00;1.00;;;;;23.08;50.23;99099.19;4915728;28;102023;-64
2022/07/19 07:38:27;;;;;;;;;1.00;1.00;;;;;23.09;50.43;99111.91;4917114;28;102337;-65
2022/07/19 07:40:56;;;;;;;;;0.00;0.00;;;;;23.11;50.44;99104.16;4936332;28;109387;-65
2022/07/19 07:43:43;;;;;;;;;0.00;0.00;;;;;23.10;50.29;99101.66;4912664;28;102186;-65
2022/07/19 07:46:10;;;;;;;;;0.67;0.67;;;;;23.10;50.38;99112.69;4916989;28;103072;-64
2022/07/19 07:48:37;;;;;;;;;1.00;1.00;;;;;23.11;50.36;99095.06;4917963;28;102171;-65
2022/07/19 07:51:04;;;;;;;;;1.00;0.67;;;;;23.11;50.40;99087.59;4935217;28;104327;-65
2022/07/19 07:53:51;;;;;;;;;0.00;0.00;;;;;23.12;50.35;99089.28;4900504;28;102420;-65
2022/07/19 07:56:19;;;;;;;;;0.67;0.33;;;;;23.11;50.46;99093.13;4931040;28;102317;-65
2022/07/19 07:58:46;;;;;;;;;0.33;0.33;;;;;23.11;50.17;99087.59;4919875;28;102253;-64
2022/07/19 08:01:15;;;;;;;;;1.00;1.00;;;;;23.11;50.28;99095.88;4912731;28;104046;-65
2022/07/19 08:03:43;;;;;;;;;1.00;1.00;;;;;23.11;50.24;99089.53;4914862;28;102430;-65
2022/07/19 08:06:10;;;;;;;;;0.00;0.00;;;;;23.12;50.31;99097.56;4904371;28;102971;-64
2022/07/19 08:08:38;;;;;;;;;1.00;1.00;;;;;23.12;50.41;99088.44;4901836;28;103499;-65
2022/07/19 08:11:05;;;;;;;;;1.00;0.00;;;;;23.11;50.27;99087.59;4914040;28;104067;-65
2022/07/19 08:13:32;;;;;;;;;1.00;0.00;;;;;23.13;50.39;99084.59;4917861;28;102565;-65
2022/07/19 08:16:00;;;;;;;;;1.00;1.00;;;;;23.14;50.07;99083.50;4928488;28;102412;-65
2022/07/19 08:18:27;;;;;;;;;0.00;0.00;;;;;23.14;50.26;99083.50;4916040;28;102419;-64
2022/07/19 08:21:00;;;;;;;;;0.33;0.33;;;;;23.15;50.41;99085.13;4914335;28;107629;-64
2022/07/19 08:23:27;;;;;;;;;0.67;0.67;;;;;23.13;50.44;99079.91;4915348;28;102014;-64
2022/07/19 08:25:54;;;;;;;;;1.00;1.00;;;;;23.14;50.38;99087.06;4901519;28;102414;-65
2022/07/19 08:28:21;;;;;;;;;0.33;0.33;;;;;23.15;50.32;99087.88;4918131;28;102574;-65
2022/07/19 08:30:48;;;;;;;;;0.00;0.00;;;;;23.16;50.22;99083.19;4911869;28;104351;-65
2022/07/19 08:33:37;;;;;;;;;0.00;0.00;;;;;23.16;50.47;99083.19;4910156;28;102023;-65
2022/07/19 08:36:04;;;;;;;;;0.00;0.00;;;;;23.16;50.37;99084.03;4913963;28;102749;-65
2022/07/19 08:38:31;;;;;;;;;1.67;1.67;;;;;23.17;50.49;99084.88;4941370;28;102563;-64
2022/07/19 08:40:59;;;;;;;;;1.00;1.00;;;;;23.16;50.49;99084.03;4908015;28;104085;-64
2022/07/19 08:43:26;;;;;;;;;1.00;1.00;;;;;23.18;50.53;99078.25;4901669;28;102282;-65
2022/07/19 08:45:53;;;;;;;;;1.00;1.00;;;;;23.18;50.56;99081.84;4933160;28;103931;-65
2022/07/19 08:48:21;;;;;;;;;1.00;0.00;;;;;23.19;50.44;99083.47;4929675;28;102350;-65
2022/07/19 08:50:49;;;;;;;;;0.67;0.67;;;;;23.19;50.51;99068.88;4911791;28;104230;-65
2022/07/19 08:53:17;;;;;;;;;1.00;1.00;;;;;23.19;50.36;99075.22;4910309;28;102477;-65
2022/07/19 08:55:44;;;;;;;;;1.33;1.00;;;;;23.21;50.58;99074.94;4913120;28;102254;-65
2022/07/19 08:58:11;;;;;;;;;0.00;0.00;;;;;23.21;50.46;99077.72;4914652;28;102274;-65
2022/07/19 09:00:38;;;;;;;;;1.00;1.00;;;;;23.21;50.66;99072.19;4912426;28;105368;-65
2022/07/19 09:03:06;;;;;;;;;1.00;1.00;;;;;23.21;50.41;99077.72;4910842;28;102291;-65
2022/07/19 09:05:34;;;;;;;;;0.00;0.00;;;;;23.21;50.40;99070.25;4919369;28;102242;-65
2022/07/19 09:08:11;;;;;;;;;2.00;1.00;;;;;23.22;50.44;99065.56;4913274;28;102591;-65
2022/07/19 09:11:34;;;;;;;;;1.00;1.00;;;;;23.23;50.46;99072.75;4927620;28;104085;-65
2022/07/19 09:13:36;;;;;;;;;0.00;0.00;;;;;23.23;50.54;99061.72;4897623;28;102474;-65
2022/07/19 09:16:04;;;;;;;;;0.00;0.00;;;;;23.23;50.81;99068.06;4921935;28;102477;-65
2022/07/19 09:18:33;;;;;;;;;1.33;1.00;;;;;23.23;50.52;99061.72;4898844;28;102437;-65
2022/07/19 09:21:04;;;;;;;;;0.00;0.00;;;;;23.24;50.77;99066.94;4899054;28;104288;-65
2022/07/19 09:23:32;;;;;;;;;1.00;1.00;;;;;23.25;50.49;99065.03;4912930;28;102481;-65
2022/07/19 09:26:01;;;;;;;;;0.00;0.00;;;;;23.24;50.58;99058.66;4898270;28;102488;-64
2022/07/19 09:28:31;;;;;;;;;1.00;1.00;;;;;23.26;50.67;99063.94;4906302;28;102553;-65
2022/07/19 09:30:59;;;;;;;;;1.00;1.00;;;;;23.25;50.66;99060.34;4912798;28;109874;-65
2022/07/19 09:33:29;;;;;;;;;1.00;1.00;;;;;23.26;50.21;99056.47;4919612;28;102374;-64
2022/07/19 09:36:02;;;;;;;;;0.00;0.00;;;;;23.28;50.42;99053.47;4901326;28;102471;-65
2022/07/19 09:38:29;;;;;;;;;1.00;1.00;;;;;23.28;50.47;99048.75;4936598;28;102513;-65
2022/07/19 09:41:12;;;;;;;;;0.00;0.00;;;;;23.28;50.61;99047.94;4914671;28;104227;-65
2022/07/19 09:43:51;;;;;;;;;0.00;0.00;;;;;23.29;50.57;99041.28;4936361;28;102208;-65
2022/07/19 09:46:28;;;;;;;;;0.67;0.67;;;;;23.30;50.62;99043.78;4938443;28;102443;-65
2022/07/19 09:49:08;;;;;;;;;0.00;0.00;;;;;23.30;50.62;99046.56;4916557;28;102418;-64
2022/07/19 09:51:39;;;;;;;;;1.00;1.00;;;;;23.30;50.52;99045.72;4897653;28;108701;-65
2022/07/19 09:54:07;;;;;;;;;1.00;1.00;;;;;23.29;50.54;99031.09;4914765;28;102040;-65
2022/07/19 09:56:34;;;;;;;;;0.67;0.67;;;;;23.31;50.53;99042.69;4926719;28;102437;-65
2022/07/19 09:59:01;;;;;;;;;1.00;0.00;;;;;23.32;50.52;99041.59;4916609;28;102667;-65
2022/07/19 10:01:29;;;;;;;;;0.67;0.67;;;;;23.31;50.61;99028.91;4932052;28;103774;-65
2022/07/19 10:04:01;;;;;;;;;0.33;0.33;;;;;23.32;50.43;99038.00;4934546;28;102131;-65
2022/07/19 10:06:28;;;;;;;;;0.00;0.00;;;;;23.33;50.49;99034.97;4913892;28;102293;-65
2022/07/19 10:08:56;;;;;;;;;0.33;0.33;;;;;23.35;50.37;99032.78;4936908;28;102523;-65
2022/07/19 10:11:23;;;;;;;;;0.00;0.00;;;;;23.34;50.47;99027.50;4935286;28;104111;-65
2022/07/19 10:13:50;;;;;;;;;1.00;1.00;;;;;23.36;50.60;99033.59;4898363;28;102674;-65
2022/07/19 10:16:48;;;;;;;;;0.00;0.00;;;;;23.36;50.42;99033.59;4916020;28;102953;-65
2022/07/19 10:19:28;;;;;;;;;0.33;0.33;;;;;23.36;50.62;99028.91;4939443;28;102723;-65
2022/07/19 10:21:56;;;;;;;;;0.00;0.00;;;;;23.37;50.38;99029.75;4917791;28;110649;-65
2022/07/19 10:24:50;;;;;;;;;0.00;0.00;;;;;23.37;50.36;99029.75;4938943;28;103351;-65
2022/07/19 10:27:34;;;;;;;;;0.00;0.00;;;;;23.38;50.45;99025.84;4909044;28;102645;-65
2022/07/19 10:30:07;;;;;;;;;1.00;1.00;;;;;23.38;50.45;99025.84;4913056;28;103009;-65
2022/07/19 10:32:34;;;;;;;;;1.00;0.00;;;;;23.39;50.56;99027.53;4911019;28;104151;-65
2022/07/19 10:35:20;;;;;;;;;2.33;0.00;;;;;23.40;50.63;99026.44;4934969;28;102608;-64
2022/07/19 10:37:52;;;;;;;;;0.33;0.33;;;;;23.38;50.61;99021.16;4910566;28;102301;-65
2022/07/19 10:40:42;;;;;;;;;0.00;0.00;;;;;23.40;50.58;99009.88;4880498;28;103507;-65
2022/07/19 10:43:13;;;;;;;;;0.00;0.00;;;;;23.41;50.46;99014.28;4913519;28;108945;-65
2022/07/19 10:46:01;;;;;;;;;0.00;0.00;;;;;23.42;50.63;99015.94;4895152;28;102346;-64
2022/07/19 10:48:41;;;;;;;;;0.00;0.00;;;;;23.43;50.53;99014.81;4897084;28;102760;-64
2022/07/19 10:51:33;;;;;;;;;2.00;1.00;;;;;23.43;50.61;99017.59;4898364;28;102683;-65
2022/07/19 10:54:06;;;;;;;;;0.67;0.67;;;;;23.44;50.52;99013.75;4910698;28;109286;-65
2022/07/19 10:56:35;;;;;;;;;1.00;0.00;;;;;23.43;50.53;99012.91;4910648;28;102208;-65
2022/07/19 10:59:13;;;;;;;;;0.33;0.00;;;;;23.45;50.63;99015.44;4913804;28;102055;-65
2022/07/19 11:01:56;;;;;;;;;0.00;0.00;;;;;23.45;50.68;99004.38;4914883;28;102209;-65
2022/07/19 11:04:33;;;;;;;;;0.33;0.00;;;;;23.46;50.49;99008.81;4899583;28;108777;-65
2022/07/19 11:07:10;;;;;;;;;0.00;0.00;;;;;23.47;50.69;99007.69;4879550;28;102168;-64
2022/07/19 11:09:56;;;;;;;;;0.00;0.00;;;;;23.47;50.62;99004.91;4914847;28;102529;-65
2022/07/19 11:12:34;;;;;;;;;0.00;0.00;;;;;23.47;50.64;98997.47;4911567;28;102234;-65
2022/07/19 11:15:04;;;;;;;;;1.00;1.00;;;;;23.47;50.61;99003.00;4932558;28;109057;-64
2022/07/19 11:17:52;;;;;;;;;0.00;0.00;;;;;23.49;50.61;98997.22;4930892;28;102224;-65
2022/07/19 11:20:24;;;;;;;;;1.00;1.00;;;;;23.48;50.51;98999.13;4910892;28;102430;-64
2022/07/19 11:22:52;;;;;;;;;0.00;0.00;;;;;23.49;50.48;98991.69;4923634;28;103352;-64
2022/07/19 11:25:30;;;;;;;;;0.00;0.00;;;;;23.51;50.49;98994.97;4923490;28;104088;-64
2022/07/19 11:27:58;;;;;;;;;0.00;0.00;;;;;23.52;50.53;98988.38;4896092;28;102029;-65
2022/07/19 11:30:26;;;;;;;;;1.33;0.00;;;;;23.50;50.47;98983.16;4918210;28;102593;-65
2022/07/19 11:32:55;;;;;;;;;0.00;0.00;;;;;23.52;50.54;98989.19;4897547;28;102251;-64
2022/07/19 11:35:22;;;;;;;;;1.00;0.00;;;;;23.52;50.51;98991.97;4912260;28;104130;-64